Time;durP1;ratioP1;P1;durP2;ratioP2;P2;SDS_P1;SDS_P2;PMS_P1;PMS_P2;Temp;Humidity;BMP_temperature;BMP_pressure;BME280_temperature;BME280_humidity;BME280_pressure;Samples;Min_cycle;Max_cycle;Signal;HPM_P1;HPM_P2
2022/11/13 00:01:23;;;;;;;36.78;22.75;;;5.00;99.90;;;;;;4954316;28;20055;-61
2022/11/13 00:03:51;;;;;;;27.05;18.88;;;5.00;99.90;;;;;;4972690;28;20043;-62
2022/11/13 00:06:22;;;;;;;26.65;18.67;;;5.00;99.90;;;;;;4955664;28;20104;-61
2022/11/13 00:08:51;;;;;;;;;;;5.00;99.90;;;;;;4956017;28;20058;-61
2022/11/13 00:11:21;;;;;;;24.95;17.38;;;4.90;99.90;;;;;;4939242;28;19926;-61
2022/11/13 00:13:48;;;;;;;26.80;18.02;;;4.80;99.90;;;;;;4955494;28;20043;-61
2022/11/13 00:16:23;;;;;;;29.00;18.50;;;4.80;99.90;;;;;;4972542;28;20038;-62
2022/11/13 00:18:50;;;;;;;21.75;16.38;;;4.80;99.90;;;;;;4955516;28;20206;-61
2022/11/13 00:21:21;;;;;;;30.75;21.02;;;4.80;99.90;;;;;;4972734;28;20125;-61
2022/11/13 00:23:53;;;;;;;38.33;22.35;;;4.80;99.90;;;;;;4955588;28;20485;-61
2022/11/13 00:26:21;;;;;;;29.83;18.10;;;4.80;99.90;;;;;;4949424;28;20042;-61
2022/11/13 00:28:58;;;;;;;25.40;18.42;;;4.90;99.90;;;;;;4955105;28;20568;-61
2022/11/13 00:31:32;;;;;;;23.90;16.70;;;4.80;99.90;;;;;;4955027;28;20489;-62
2022/11/13 00:33:59;;;;;;;20.42;15.05;;;4.80;99.90;;;;;;4972401;28;20093;-62
2022/11/13 00:36:27;;;;;;;28.35;18.73;;;4.80;99.90;;;;;;4955276;28;20035;-62
2022/11/13 00:38:57;;;;;;;28.35;21.10;;;4.80;99.90;;;;;;4953276;28;20113;-62
2022/11/13 00:41:24;;;;;;;33.17;21.95;;;4.80;99.90;;;;;;4968045;28;20062;-61
2022/11/13 00:43:50;;;;;;;39.38;24.25;;;4.90;99.90;;;;;;4939041;28;20405;-62
2022/11/13 00:46:16;;;;;;;39.80;25.42;;;5.00;99.90;;;;;;4952461;28;20182;-62
2022/11/13 00:48:44;;;;;;;52.17;28.77;;;5.10;99.90;;;;;;4972229;28;20046;-61
2022/11/13 00:51:13;;;;;;;38.70;24.48;;;5.10;99.90;;;;;;4969922;28;20641;-61
2022/11/13 00:53:42;;;;;;;33.05;23.55;;;5.10;99.90;;;;;;4973854;28;20041;-61
2022/11/13 00:56:13;;;;;;;39.20;23.52;;;5.10;99.90;;;;;;4957026;28;20067;-62
2022/11/13 00:58:42;;;;;;;27.70;19.92;;;5.10;99.90;;;;;;4958907;28;20046;-61
2022/11/13 01:01:13;;;;;;;28.38;19.00;;;5.00;99.90;;;;;;4958628;28;20047;-62
2022/11/13 01:03:41;;;;;;;23.13;16.25;;;5.00;99.90;;;;;;4975714;28;20055;-61
2022/11/13 01:06:36;;;;;;;28.65;19.60;;;5.00;99.90;;;;;;4958823;28;20086;-61
2022/11/13 01:09:03;;;;;;;26.40;19.00;;;5.00;99.90;;;;;;4946396;28;20063;-62
2022/11/13 01:11:31;;;;;;;29.20;20.42;;;5.00;99.90;;;;;;4958392;28;20153;-61
2022/11/13 01:13:58;;;;;;;30.95;21.00;;;5.10;99.90;;;;;;4975628;28;20066;-62
2022/11/13 01:16:27;;;;;;;33.10;20.40;;;5.10;99.90;;;;;;4975679;28;20512;-62
2022/11/13 01:19:04;;;;;;;31.05;21.38;;;5.20;99.90;;;;;;4958767;28;20043;-62
2022/11/13 01:21:31;;;;;;;29.17;21.98;;;5.20;99.90;;;;;;4975768;28;20035;-62
2022/11/13 01:24:11;;;;;;;40.53;25.20;;;5.30;99.90;;;;;;4958203;28;20548;-62
2022/11/13 01:26:37;;;;;;;42.17;25.25;;;5.30;99.90;;;;;;4956382;28;20495;-61
2022/11/13 01:29:03;;;;;;;29.08;19.63;;;5.40;99.90;;;;;;4958059;28;20067;-62
2022/11/13 01:31:32;;;;;;;30.08;20.35;;;5.40;99.90;;;;;;4942229;28;20046;-61
2022/11/13 01:34:05;;;;;;;29.40;21.95;;;5.50;99.90;;;;;;4958335;28;20277;-62
2022/11/13 01:36:40;;;;;;;30.60;21.65;;;5.70;99.90;;;;;;4953171;28;20113;-62
2022/11/13 01:39:11;;;;;;;35.90;22.27;;;5.80;99.90;;;;;;4975322;28;20043;-62
2022/11/13 01:41:42;;;;;;;30.83;22.60;;;5.90;99.90;;;;;;4974900;28;20051;-61
2022/11/13 01:44:16;;;;;;;29.38;22.25;;;6.00;99.90;;;;;;4974863;28;20065;-61
2022/11/13 01:46:54;;;;;;;33.63;22.00;;;6.10;99.90;;;;;;4957926;28;20497;-62
2022/11/13 01:49:39;;;;;;;29.58;21.30;;;6.20;99.90;;;;;;4957895;28;20065;-62
2022/11/13 01:52:19;;;;;;;30.92;21.95;;;6.20;99.90;;;;;;4941843;28;20090;-61
2022/11/13 01:54:48;;;;;;;;;;;6.30;99.90;;;;;;4958414;28;20046;-62
2022/11/13 01:57:16;;;;;;;33.60;22.83;;;6.30;99.90;;;;;;4955668;28;19988;-62
2022/11/13 01:59:51;;;;;;;28.27;20.40;;;6.30;99.90;;;;;;4957527;28;20154;-61
2022/11/13 02:02:20;;;;;;;24.35;18.67;;;6.40;99.90;;;;;;4957475;28;20054;-61
2022/11/13 02:04:46;;;;;;;23.75;17.95;;;6.40;99.90;;;;;;4957407;28;20057;-61
2022/11/13 02:07:15;;;;;;;25.02;18.17;;;6.40;99.90;;;;;;4954634;28;20047;-61
2022/11/13 02:09:53;;;;;;;24.10;17.85;;;6.50;99.90;;;;;;4957739;28;20043;-61
2022/11/13 02:12:42;;;;;;;20.40;16.60;;;6.50;99.90;;;;;;4957190;28;20121;-61
2022/11/13 02:15:11;;;;;;;25.50;18.02;;;6.60;99.90;;;;;;4974685;28;20244;-62
2022/11/13 02:17:46;;;;;;;23.35;16.98;;;6.60;99.90;;;;;;4971713;28;20042;-61
2022/11/13 02:20:16;;;;;;;29.48;19.70;;;6.60;99.90;;;;;;4941507;28;20362;-61
2022/11/13 02:23:08;;;;;;;20.20;16.33;;;6.60;99.90;;;;;;4941477;28;20141;-62
2022/11/13 02:25:40;;;;;;;28.83;20.65;;;6.70;99.90;;;;;;4955949;28;20473;-61
2022/11/13 02:28:06;;;;;;;25.15;18.42;;;6.60;99.90;;;;;;4974713;28;20370;-61
2022/11/13 02:30:36;;;;;;;22.55;17.13;;;6.70;99.90;;;;;;4956874;28;20059;-61
2022/11/13 02:33:29;;;;;;;21.92;16.92;;;6.60;99.90;;;;;;4956794;28;20393;-62
2022/11/13 02:36:00;;;;;;;24.20;18.67;;;6.60;99.90;;;;;;4974351;28;20038;-61
2022/11/13 02:38:35;;;;;;;23.80;18.27;;;6.60;99.90;;;;;;4974419;28;20486;-61
2022/11/13 02:41:01;;;;;;;23.25;17.42;;;6.50;99.90;;;;;;4957098;28;20525;-61
2022/11/13 02:43:27;;;;;;;22.48;16.48;;;6.50;99.90;;;;;;4974389;28;20046;-61
2022/11/13 02:45:56;;;;;;;23.70;16.85;;;6.50;99.90;;;;;;4974172;28;20413;-61
2022/11/13 02:48:28;;;;;;;26.27;18.65;;;6.40;99.90;;;;;;4973911;28;20053;-62
2022/11/13 02:50:57;;;;;;;24.75;17.58;;;6.40;99.90;;;;;;4956147;28;20054;-61
2022/11/13 02:53:33;;;;;;;23.98;16.08;;;6.40;99.90;;;;;;4974026;28;20070;-62
2022/11/13 02:56:00;;;;;;;20.50;15.95;;;6.30;99.90;;;;;;4954410;28;20043;-62
2022/11/13 02:58:29;;;;;;;21.70;16.55;;;6.30;99.90;;;;;;4973858;28;20031;-61
2022/11/13 03:01:01;;;;;;;22.08;17.45;;;6.30;99.90;;;;;;4956471;28;20035;-61
2022/11/13 03:03:27;;;;;;;24.63;17.73;;;6.30;99.90;;;;;;4950341;29;20063;-61
2022/11/13 03:05:53;;;;;;;28.08;17.98;;;6.30;99.90;;;;;;4937530;29;20109;-61
2022/11/13 03:08:24;;;;;;;25.00;18.33;;;6.30;99.90;;;;;;4953460;29;20090;-61
2022/11/13 03:10:54;;;;;;;26.48;17.63;;;6.30;99.90;;;;;;4954319;28;20051;-62
2022/11/13 03:13:20;;;;;;;28.95;20.00;;;6.30;99.90;;;;;;4953023;29;20043;-61
2022/11/13 03:15:52;;;;;;;28.55;20.42;;;6.40;99.90;;;;;;4953733;28;20053;-62
2022/11/13 03:18:19;;;;;;;29.45;20.45;;;6.30;99.90;;;;;;4953222;29;20039;-61
2022/11/13 03:20:45;;;;;;;27.83;19.25;;;6.40;99.90;;;;;;4953174;29;20125;-62
2022/11/13 03:23:14;;;;;;;22.25;17.85;;;6.40;99.90;;;;;;4953041;28;20126;-62
2022/11/13 03:25:40;;;;;;;26.05;18.77;;;6.40;99.90;;;;;;4952015;28;20046;-61
2022/11/13 03:28:11;;;;;;;23.70;17.92;;;6.40;99.90;;;;;;4954069;28;20039;-61
2022/11/13 03:30:37;;;;;;;28.20;19.65;;;6.40;99.90;;;;;;4952882;29;20046;-62
2022/11/13 03:33:03;;;;;;;24.95;17.10;;;6.40;99.90;;;;;;4953018;29;20130;-61
2022/11/13 03:35:32;;;;;;;26.10;19.02;;;6.40;99.90;;;;;;4952926;29;20161;-61
2022/11/13 03:37:58;;;;;;;26.45;18.92;;;6.40;99.90;;;;;;4952920;29;20424;-61
2022/11/13 03:40:33;;;;;;;31.13;21.00;;;6.40;99.90;;;;;;4952861;29;20046;-62
2022/11/13 03:43:02;;;;;;;25.65;18.23;;;6.40;99.90;;;;;;4936887;29;20107;-61
2022/11/13 03:45:34;;;;;;;26.77;18.70;;;6.40;99.90;;;;;;4952789;29;20437;-61
2022/11/13 03:48:01;;;;;;;27.75;20.23;;;6.40;99.90;;;;;;4952448;29;20046;-61
2022/11/13 03:50:30;;;;;;;24.58;17.88;;;6.40;99.90;;;;;;4936419;29;20043;-61
2022/11/13 03:52:59;;;;;;;29.25;19.30;;;6.40;99.90;;;;;;4953759;28;20039;-61
2022/11/13 03:55:26;;;;;;;22.00;16.83;;;6.40;99.90;;;;;;4953584;28;20466;-62
2022/11/13 03:58:00;;;;;;;28.05;18.58;;;6.40;99.90;;;;;;4951407;28;20054;-61
2022/11/13 04:00:26;;;;;;;25.98;18.98;;;6.40;99.90;;;;;;4952414;29;20062;-62
2022/11/13 04:02:53;;;;;;;30.52;18.85;;;6.40;99.90;;;;;;4936266;29;20070;-61
2022/11/13 04:05:20;;;;;;;25.30;17.65;;;6.40;99.90;;;;;;4952478;29;20089;-62
2022/11/13 04:07:46;;;;;;;22.88;17.15;;;6.40;99.90;;;;;;4952387;29;20043;-62
2022/11/13 04:10:15;;;;;;;24.10;17.40;;;6.40;99.90;;;;;;4952359;29;20137;-62
2022/11/13 04:12:46;;;;;;;26.85;18.27;;;6.40;99.90;;;;;;4953218;28;20047;-62
2022/11/13 04:15:12;;;;;;;22.95;16.63;;;6.40;99.90;;;;;;4953383;28;20046;-62
2022/11/13 04:17:38;;;;;;;24.65;17.30;;;6.50;99.90;;;;;;4952093;29;20046;-61
2022/11/13 04:20:05;;;;;;;23.52;17.10;;;6.50;99.90;;;;;;4953277;28;20039;-62
2022/11/13 04:22:34;;;;;;;25.17;16.55;;;6.50;99.90;;;;;;4953358;28;20043;-61
2022/11/13 04:25:00;;;;;;;22.35;17.05;;;6.50;99.90;;;;;;4953361;28;20083;-62
2022/11/13 04:27:29;;;;;;;20.88;16.15;;;6.50;99.90;;;;;;4950428;28;20729;-62
2022/11/13 04:30:06;;;;;;;23.02;15.45;;;6.50;99.90;;;;;;4952009;29;20050;-62
2022/11/13 04:32:33;;;;;;;22.05;16.23;;;6.60;99.90;;;;;;4951976;29;20428;-62
2022/11/13 04:35:00;;;;;;;20.75;14.93;;;6.60;99.90;;;;;;4952029;29;20047;-61
2022/11/13 04:37:26;;;;;;;22.02;16.05;;;6.60;99.90;;;;;;4953364;28;20042;-61
2022/11/13 04:39:52;;;;;;;23.48;17.55;;;6.60;99.90;;;;;;4953132;28;20074;-62
2022/11/13 04:45:08;;;;;;;19.10;14.35;;;6.60;99.90;;;;;;4952066;29;20524;-63
2022/11/13 04:47:42;;;;;;;19.90;16.10;;;6.60;99.90;;;;;;4953018;28;20417;-63
2022/11/13 04:50:08;;;;;;;22.88;16.88;;;6.50;99.90;;;;;;4951692;29;20102;-62
2022/11/13 04:52:37;;;;;;;22.67;18.73;;;6.50;99.90;;;;;;4951821;29;20082;-63
2022/11/13 04:55:12;;;;;;;22.35;16.95;;;6.50;99.90;;;;;;4953046;28;20043;-63
2022/11/13 04:57:39;;;;;;;26.15;17.83;;;6.50;99.90;;;;;;4950890;28;20032;-63
2022/11/13 05:00:09;;;;;;;22.33;16.02;;;6.50;99.90;;;;;;4952862;28;20086;-63
2022/11/13 05:02:38;;;;;;;19.58;13.63;;;6.50;99.90;;;;;;4951073;29;20141;-62
2022/11/13 05:05:11;;;;;;;23.88;17.67;;;6.50;99.90;;;;;;4953114;28;20110;-62
2022/11/13 05:07:37;;;;;;;22.88;17.27;;;6.40;99.90;;;;;;4951635;29;20050;-62
2022/11/13 05:10:04;;;;;;;23.00;17.23;;;6.40;99.90;;;;;;4951567;29;20101;-62
2022/11/13 05:12:33;;;;;;;27.15;18.75;;;6.40;99.90;;;;;;4951271;29;20086;-63
2022/11/13 05:15:08;;;;;;;25.25;17.17;;;6.40;99.90;;;;;;4951576;29;20040;-62
2022/11/13 05:17:37;;;;;;;24.20;17.98;;;6.40;99.90;;;;;;4952741;28;20473;-62
2022/11/13 05:20:04;;;;;;;23.48;17.10;;;6.40;99.90;;;;;;4952095;28;20358;-63
2022/11/13 05:22:44;;;;;;;26.08;17.05;;;6.30;99.90;;;;;;4952825;28;20134;-62
2022/11/13 05:25:13;;;;;;;22.65;17.17;;;6.30;99.90;;;;;;4951375;29;20083;-62
2022/11/13 05:27:50;;;;;;;23.52;16.58;;;6.30;99.90;;;;;;4949546;29;20393;-62
2022/11/13 05:30:16;;;;;;;22.30;16.55;;;6.20;99.90;;;;;;4951723;29;20051;-62
2022/11/13 05:32:43;;;;;;;24.73;17.30;;;6.20;99.90;;;;;;4951373;29;20074;-62
2022/11/13 05:35:09;;;;;;;22.85;16.48;;;6.10;99.90;;;;;;4951582;29;20114;-62
2022/11/13 05:37:38;;;;;;;24.00;17.58;;;6.10;99.90;;;;;;4951476;29;20039;-62
2022/11/13 05:40:08;;;;;;;24.30;17.30;;;6.10;99.90;;;;;;4953252;28;20441;-62
2022/11/13 05:42:34;;;;;;;23.90;18.08;;;6.10;99.90;;;;;;4954655;28;20046;-62
2022/11/13 05:45:06;;;;;;;28.15;18.90;;;6.10;99.90;;;;;;4955966;29;20039;-62
2022/11/13 05:47:37;;;;;;;30.00;19.42;;;6.00;99.90;;;;;;4954837;29;20159;-62
2022/11/13 05:50:03;;;;;;;24.35;18.05;;;6.00;99.90;;;;;;4954522;29;20043;-62
2022/11/13 05:52:38;;;;;;;29.05;19.10;;;6.00;99.90;;;;;;4954534;29;20051;-62
2022/11/13 05:55:09;;;;;;;27.95;19.20;;;6.00;99.90;;;;;;4954498;29;20077;-62
2022/11/13 05:57:43;;;;;;;26.80;19.35;;;5.90;99.90;;;;;;4952379;29;20074;-62
2022/11/13 06:00:15;;;;;;;25.70;18.60;;;5.90;99.90;;;;;;4954488;29;20078;-62
2022/11/13 06:02:41;;;;;;;28.17;20.85;;;5.90;99.90;;;;;;4954292;29;20063;-62
2022/11/13 06:05:14;;;;;;;28.80;20.58;;;5.90;99.90;;;;;;4955854;29;20054;-62
2022/11/13 06:07:47;;;;;;;27.17;19.50;;;6.00;99.90;;;;;;4955535;29;20039;-62
2022/11/13 06:10:13;;;;;;;31.08;21.05;;;5.90;99.90;;;;;;4954543;29;20086;-63
2022/11/13 06:12:44;;;;;;;28.40;20.52;;;5.90;99.90;;;;;;4954160;29;20086;-62
2022/11/13 06:15:16;;;;;;;26.70;18.23;;;5.90;99.90;;;;;;4955445;28;20036;-62
2022/11/13 06:17:48;;;;;;;24.92;17.33;;;5.90;99.90;;;;;;4954372;29;20047;-62
2022/11/13 06:20:26;;;;;;;22.90;17.15;;;5.80;99.90;;;;;;4955393;28;20040;-63
2022/11/13 06:22:56;;;;;;;27.83;19.13;;;5.70;99.90;;;;;;4947387;29;20438;-63
2022/11/13 06:25:22;;;;;;;24.50;18.42;;;5.70;99.90;;;;;;4954851;28;20098;-63
2022/11/13 06:27:51;;;;;;;27.25;18.55;;;5.60;99.90;;;;;;4951795;29;20035;-62
2022/11/13 06:30:25;;;;;;;29.58;19.20;;;5.60;99.90;;;;;;4954228;29;20040;-62
2022/11/13 06:32:58;;;;;;;25.77;18.13;;;5.50;99.90;;;;;;4953805;29;20046;-62
2022/11/13 06:35:24;;;;;;;;;;;5.40;99.90;;;;;;4955539;29;20082;-61
2022/11/13 06:37:51;;;;;;;25.55;18.48;;;5.40;99.90;;;;;;4953985;29;19958;-61
2022/11/13 06:40:17;;;;;;;27.92;19.40;;;5.30;99.90;;;;;;4953975;29;20086;-62
2022/11/13 06:42:43;;;;;;;28.20;19.95;;;5.30;99.90;;;;;;4937949;29;20039;-62
2022/11/13 06:45:12;;;;;;;26.83;18.35;;;5.30;99.90;;;;;;4953894;29;20043;-62
2022/11/13 06:47:38;;;;;;;26.00;17.67;;;5.20;99.90;;;;;;4953854;29;20082;-62
2022/11/13 06:50:05;;;;;;;24.75;17.60;;;5.20;99.90;;;;;;4953591;28;20043;-62
2022/11/13 06:52:33;;;;;;;23.15;18.30;;;5.10;99.90;;;;;;4952845;29;20058;-62
2022/11/13 06:55:00;;;;;;;23.35;17.25;;;5.00;99.90;;;;;;4969564;28;20035;-61
2022/11/13 06:57:26;;;;;;;27.08;19.63;;;5.00;99.90;;;;;;4952724;29;20425;-61
2022/11/13 06:59:52;;;;;;;26.60;19.00;;;4.90;99.90;;;;;;4954744;29;20039;-61
2022/11/13 07:02:19;;;;;;;27.85;20.60;;;4.90;99.90;;;;;;4962132;28;20133;-61
2022/11/13 07:04:45;;;;;;;30.70;21.33;;;4.90;99.90;;;;;;4940862;28;20043;-62
2022/11/13 07:07:11;;;;;;;34.90;24.00;;;4.90;99.90;;;;;;4940752;28;20057;-61
2022/11/13 07:09:39;;;;;;;35.42;23.13;;;4.90;99.90;;;;;;4940676;28;20497;-61
2022/11/13 07:12:07;;;;;;;47.38;30.92;;;5.00;99.90;;;;;;4956332;28;20039;-61
2022/11/13 07:14:36;;;;;;;38.65;26.85;;;5.00;99.90;;;;;;4973552;28;20039;-61
2022/11/13 07:17:07;;;;;;;30.73;22.40;;;5.00;99.90;;;;;;4956554;28;20048;-61
2022/11/13 07:19:34;;;;;;;32.55;23.48;;;5.00;99.90;;;;;;4973505;28;20121;-61
2022/11/13 07:22:05;;;;;;;29.42;20.65;;;5.00;99.90;;;;;;4956273;28;20097;-62
2022/11/13 07:24:31;;;;;;;27.25;20.58;;;5.10;99.90;;;;;;4973370;28;20038;-62
2022/11/13 07:26:58;;;;;;;27.67;20.83;;;5.00;99.90;;;;;;4971162;28;20504;-61
2022/11/13 07:29:25;;;;;;;28.95;19.75;;;5.10;99.90;;;;;;4956262;28;20046;-62
2022/11/13 07:31:52;;;;;;;33.03;23.27;;;5.10;99.90;;;;;;4955958;28;20046;-62
2022/11/13 07:34:18;;;;;;;33.05;22.27;;;5.10;99.90;;;;;;4956098;28;20053;-62
2022/11/13 07:36:45;;;;;;;36.58;24.85;;;5.20;99.90;;;;;;4955923;28;20038;-62
2022/11/13 07:39:11;;;;;;;41.30;30.48;;;5.20;99.90;;;;;;4955824;28;20465;-61
2022/11/13 07:41:38;;;;;;;35.47;25.50;;;5.30;99.90;;;;;;4956027;28;20487;-62
2022/11/13 07:44:05;;;;;;;35.35;25.35;;;5.40;99.90;;;;;;4956007;28;20134;-62
2022/11/13 07:46:31;;;;;;;34.78;24.58;;;5.50;99.90;;;;;;4973115;28;20039;-61
2022/11/13 07:48:57;;;;;;;33.03;23.23;;;5.70;99.90;;;;;;4939658;28;20035;-61
2022/11/13 07:51:23;;;;;;;35.95;23.10;;;5.80;99.90;;;;;;4972832;28;20035;-62
2022/11/13 07:53:50;;;;;;;30.30;23.05;;;6.00;99.90;;;;;;4955927;28;20046;-61
2022/11/13 07:56:16;;;;;;;24.98;19.83;;;6.10;99.90;;;;;;4970812;28;20035;-61
2022/11/13 07:58:42;;;;;;;25.17;19.13;;;6.20;99.90;;;;;;4955519;28;20039;-61
2022/11/13 08:01:09;;;;;;;23.90;18.42;;;6.30;99.90;;;;;;4972757;28;20560;-61
2022/11/13 08:03:36;;;;;;;23.45;18.40;;;6.40;99.90;;;;;;4972406;28;20522;-61
2022/11/13 08:06:05;;;;;;;24.15;17.38;;;6.50;99.90;;;;;;4955467;28;20058;-61
2022/11/13 08:08:32;;;;;;;26.38;20.02;;;6.70;99.90;;;;;;4972657;28;20045;-61
2022/11/13 08:11:02;;;;;;;23.02;17.85;;;6.90;99.90;;;;;;4972491;28;20113;-61
2022/11/13 08:13:28;;;;;;;18.92;15.25;;;7.20;99.90;;;;;;4955500;28;20046;-61
2022/11/13 08:15:57;;;;;;;20.17;15.98;;;7.60;99.90;;;;;;4972656;28;20050;-62
2022/11/13 08:18:23;;;;;;;22.27;17.67;;;7.90;99.90;;;;;;4955400;28;20053;-61
2022/11/13 08:20:49;;;;;;;27.15;22.15;;;8.30;99.90;;;;;;4939503;28;20130;-62
2022/11/13 08:23:16;;;;;;;19.10;16.13;;;8.60;99.90;;;;;;4972439;28;20039;-62
2022/11/13 08:25:43;;;;;;;18.80;16.15;;;8.90;99.90;;;;;;4953923;28;20046;-62
2022/11/13 08:28:09;;;;;;;22.30;15.07;;;9.00;99.90;;;;;;4954868;28;20054;-62
2022/11/13 08:30:35;;;;;;;19.00;14.25;;;9.30;99.90;;;;;;4972522;28;20042;-62
2022/11/13 08:33:02;;;;;;;14.98;12.38;;;9.70;99.90;;;;;;4972257;28;20078;-62
2022/11/13 08:35:29;;;;;;;15.13;12.98;;;9.90;99.90;;;;;;4939365;28;20173;-62
2022/11/13 08:38:05;;;;;;;14.18;11.90;;;10.00;99.90;;;;;;4955244;28;20050;-62
2022/11/13 08:40:32;;;;;;;14.55;11.23;;;10.20;99.90;;;;;;4955021;28;20051;-62
2022/11/13 08:43:00;;;;;;;16.67;12.55;;;10.50;99.90;;;;;;4955073;28;20555;-62
2022/11/13 08:45:27;;;;;;;16.48;13.65;;;11.00;99.90;;;;;;4972290;28;20179;-62
2022/11/13 08:47:53;;;;;;;16.30;13.13;;;11.80;99.90;;;;;;4955204;28;20051;-63
2022/11/13 08:50:20;;;;;;;12.30;10.93;;;12.70;99.90;;;;;;4955196;28;20148;-62
2022/11/13 08:52:46;;;;;;;12.73;10.65;;;13.40;99.90;;;;;;4954890;28;20553;-62
2022/11/13 08:55:12;;;;;;;11.88;10.07;;;14.10;99.90;;;;;;4955184;28;20532;-62
2022/11/13 08:57:39;;;;;;;12.40;10.50;;;14.60;99.90;;;;;;4969861;28;20038;-62
2022/11/13 09:00:06;;;;;;;13.52;10.52;;;15.10;99.90;;;;;;4971936;28;20050;-62
2022/11/13 09:02:32;;;;;;;11.98;10.25;;;15.50;99.90;;;;;;4951483;29;20078;-62
2022/11/13 09:04:58;;;;;;;11.25;10.00;;;16.00;99.90;;;;;;4951854;29;20489;-62
2022/11/13 09:07:28;;;;;;;11.82;10.63;;;16.20;99.90;;;;;;4951780;29;20043;-62
2022/11/13 09:09:54;;;;;;;10.82;9.32;;;16.40;99.90;;;;;;4933784;29;20545;-62
2022/11/13 09:12:20;;;;;;;9.55;8.52;;;16.60;99.90;;;;;;4951321;29;20035;-61
2022/11/13 09:14:46;;;;;;;11.43;9.45;;;16.90;99.90;;;;;;4954700;28;20711;-62
2022/11/13 09:17:12;;;;;;;10.30;9.20;;;17.10;99.90;;;;;;4956652;29;20473;-63
2022/11/13 09:19:38;;;;;;;10.88;9.15;;;17.20;99.90;;;;;;4955167;29;20126;-62
2022/11/13 09:22:05;;;;;;;10.55;8.98;;;17.50;99.90;;;;;;4955218;29;20539;-63
2022/11/13 09:24:31;;;;;;;21.73;15.95;;;17.80;99.90;;;;;;4955045;29;20309;-63
2022/11/13 09:26:57;;;;;;;19.27;17.25;;;18.00;99.90;;;;;;4937283;29;20043;-63
2022/11/13 09:29:24;;;;;;;12.25;10.18;;;18.30;99.90;;;;;;4956165;28;20114;-63
2022/11/13 09:31:51;;;;;;;13.50;11.93;;;18.60;99.90;;;;;;4954919;29;20126;-63
2022/11/13 09:34:17;;;;;;;10.02;8.10;;;18.80;99.90;;;;;;4956194;28;20042;-63
2022/11/13 09:36:43;;;;;;;12.00;10.65;;;19.00;99.90;;;;;;4954696;29;20047;-63
2022/11/13 09:39:09;;;;;;;9.85;8.85;;;19.10;99.90;;;;;;4956180;28;20035;-63
2022/11/13 09:42:02;;;;;;;11.63;9.18;;;19.40;99.90;;;;;;4956106;28;20049;-62
2022/11/13 09:44:40;;;;;;;10.50;9.00;;;19.80;99.90;;;;;;4954988;29;20055;-63
2022/11/13 09:47:41;;;;;;;11.70;8.52;;;20.20;99.90;;;;;;4938972;29;20133;-65
2022/11/13 09:50:18;;;;;;;9.57;8.52;;;20.50;99.90;;;;;;4934107;29;20054;-63
2022/11/13 09:52:45;;;;;;;9.07;8.20;;;20.80;99.90;;;;;;4954466;29;20094;-63
2022/11/13 09:55:14;;;;;;;10.13;7.97;;;21.00;99.60;;;;;;4954461;29;20079;-63
2022/11/13 09:57:59;;;;;;;9.70;8.80;;;21.10;97.80;;;;;;4968281;28;20434;-63
2022/11/13 10:00:27;;;;;;;12.48;9.63;;;21.10;96.40;;;;;;4954189;29;20055;-63
2022/11/13 10:03:10;;;;;;;10.93;9.60;;;21.20;96.20;;;;;;4954263;29;20174;-63
2022/11/13 10:05:51;;;;;;;13.23;11.85;;;21.30;94.10;;;;;;4955634;28;20058;-63
2022/11/13 10:08:23;;;;;;;14.38;11.50;;;21.50;94.70;;;;;;4955709;28;20039;-63
2022/11/13 10:11:11;;;;;;;14.00;12.45;;;21.50;93.70;;;;;;4954108;29;20516;-63
2022/11/13 10:13:51;;;;;;;9.75;8.75;;;21.20;93.90;;;;;;4955597;28;20047;-63
2022/11/13 10:16:29;;;;;;;;;;;21.20;93.20;;;;;;4956065;28;20039;-64
2022/11/13 10:19:06;;;;;;;8.40;7.60;;;21.30;93.30;;;;;;4955447;28;19918;-63
2022/11/13 10:21:57;;;;;;;10.35;9.23;;;21.50;95.50;;;;;;4955354;28;20438;-63
2022/11/13 10:24:38;;;;;;;9.55;8.25;;;21.70;93.40;;;;;;4954025;29;20453;-63
2022/11/13 10:27:12;;;;;;;8.85;7.95;;;21.80;92.40;;;;;;4953024;28;20130;-63
2022/11/13 10:29:39;;;;;;;11.07;9.38;;;21.80;92.30;;;;;;4954049;28;20075;-62
2022/11/13 10:32:26;;;;;;;9.13;7.85;;;21.70;92.00;;;;;;4966070;28;20047;-63
2022/11/13 10:35:05;;;;;;;11.18;8.77;;;21.90;90.90;;;;;;4974570;28;20073;-63
2022/11/13 10:37:40;;;;;;;9.95;8.63;;;21.60;90.40;;;;;;4974352;28;20518;-63
2022/11/13 10:40:06;;;;;;;11.00;8.65;;;21.50;92.00;;;;;;4974341;28;20030;-63
2022/11/13 10:42:41;;;;;;;9.15;8.25;;;21.80;91.00;;;;;;4973228;28;20078;-64
2022/11/13 10:45:17;;;;;;;8.18;7.25;;;22.00;89.80;;;;;;4974252;28;20054;-63
2022/11/13 10:47:48;;;;;;;8.63;7.72;;;22.40;89.80;;;;;;4974021;28;20038;-63
2022/11/13 10:50:30;;;;;;;7.88;7.07;;;22.50;86.50;;;;;;4973907;28;20050;-63
2022/11/13 10:52:57;;;;;;;8.35;6.80;;;22.30;86.30;;;;;;4972702;28;20125;-63
2022/11/13 10:55:40;;;;;;;7.03;6.32;;;21.70;87.40;;;;;;4973041;28;20046;-64
2022/11/13 10:58:16;;;;;;;7.57;6.88;;;20.90;90.30;;;;;;4971335;28;20561;-63
2022/11/13 11:00:46;;;;;;;7.40;6.68;;;20.40;92.10;;;;;;4973900;28;20697;-63
2022/11/13 11:03:16;;;;;;;7.13;5.72;;;20.30;92.70;;;;;;4972452;28;20057;-63
2022/11/13 11:06:12;;;;;;;6.97;6.15;;;20.50;92.80;;;;;;4972783;28;20034;-63
2022/11/13 11:08:38;;;;;;;7.75;6.15;;;20.50;91.90;;;;;;4960283;28;20073;-63
2022/11/13 11:14:15;;;;;;;6.53;5.90;;;19.60;91.10;;;;;;4972376;28;20607;-62
2022/11/13 11:16:43;;;;;;;8.32;6.05;;;19.00;93.00;;;;;;4973721;28;20437;-63
2022/11/13 11:19:13;;;;;;;8.43;6.40;;;18.50;94.40;;;;;;4972556;28;20031;-63
2022/11/13 11:21:42;;;;;;;;;;;18.00;95.00;;;;;;4961468;28;20118;-63
2022/11/13 11:24:21;;;;;;;6.65;5.22;;;17.70;96.50;;;;;;4946878;29;19972;-62
2022/11/13 11:27:00;;;;;;;6.40;5.25;;;17.60;98.80;;;;;;4951004;29;20053;-63
2022/11/13 11:30:03;;;;;;;7.95;6.30;;;17.70;99.20;;;;;;4954087;29;20051;-63
2022/11/13 11:32:55;;;;;;;5.63;4.82;;;18.00;98.10;;;;;;4954015;28;20501;-63
2022/11/13 11:35:36;;;;;;;5.70;5.10;;;18.30;98.00;;;;;;4941329;29;20110;-63
2022/11/13 11:38:15;;;;;;;5.65;5.07;;;18.60;97.80;;;;;;4952210;28;20106;-62
2022/11/13 11:40:48;;;;;;;6.00;5.10;;;18.70;96.90;;;;;;4966868;28;20050;-63
2022/11/13 11:43:38;;;;;;;6.60;5.53;;;18.50;97.60;;;;;;4973082;28;20041;-62
2022/11/13 11:46:09;;;;;;;6.10;4.82;;;18.50;96.60;;;;;;4973115;28;20039;-62
2022/11/13 11:48:35;;;;;;;6.20;4.30;;;18.80;95.70;;;;;;4972433;28;20046;-63
2022/11/13 11:51:50;;;;;;;5.38;4.72;;;19.10;95.80;;;;;;4972850;28;20370;-62
2022/11/13 11:54:32;;;;;;;5.70;4.68;;;19.10;95.00;;;;;;4969164;28;20485;-62
2022/11/13 11:57:21;;;;;;;6.88;4.70;;;19.00;94.80;;;;;;4969477;28;20046;-63
2022/11/13 12:00:14;;;;;;;6.00;5.28;;;18.70;95.10;;;;;;4973059;28;20035;-62
2022/11/13 12:03:04;;;;;;;6.07;4.85;;;18.70;95.30;;;;;;4971535;28;20390;-62
2022/11/13 12:05:56;;;;;;;5.68;4.63;;;18.80;95.40;;;;;;4955686;28;20050;-62
2022/11/13 12:08:57;;;;;;;6.18;4.93;;;18.90;95.70;;;;;;4971732;28;20057;-62
2022/11/13 12:11:37;;;;;;;6.93;4.55;;;18.50;95.50;;;;;;4971201;28;20105;-62
2022/11/13 12:14:13;;;;;;;5.82;4.47;;;18.00;96.60;;;;;;4972589;28;20370;-62
2022/11/13 12:16:57;;;;;;;5.35;3.95;;;17.80;97.60;;;;;;4955577;28;20030;-61
2022/11/13 12:19:55;;;;;;;5.10;3.90;;;17.50;97.70;;;;;;4972607;28;20035;-62
2022/11/13 12:22:48;;;;;;;5.65;4.35;;;17.20;97.80;;;;;;4959925;28;20086;-62
2022/11/13 12:25:45;;;;;;;5.20;3.88;;;16.80;97.70;;;;;;4972589;28;20039;-61
2022/11/13 12:28:23;;;;;;;5.30;3.95;;;16.50;97.30;;;;;;4970374;28;20053;-61
2022/11/13 12:30:58;;;;;;;4.97;3.72;;;16.30;97.20;;;;;;4971358;28;20046;-62
2022/11/13 12:33:40;;;;;;;4.82;3.90;;;16.10;97.90;;;;;;4971410;28;20055;-61
2022/11/13 12:36:10;;;;;;;6.63;4.35;;;16.00;98.60;;;;;;4942123;29;20047;-61
2022/11/13 12:38:36;;;;;;;;;;;15.90;99.90;;;;;;4934429;29;20572;-61
2022/11/13 12:41:05;;;;;;;6.57;4.78;;;15.70;99.90;;;;;;4933002;29;20001;-61
2022/11/13 12:43:46;;;;;;;6.45;4.95;;;15.50;99.90;;;;;;4933021;29;20398;-61
2022/11/13 12:46:16;;;;;;;6.03;4.65;;;15.30;99.90;;;;;;4934189;29;20459;-61
2022/11/13 12:48:47;;;;;;;5.45;4.63;;;15.10;99.90;;;;;;4933920;29;20110;-62
2022/11/13 12:51:16;;;;;;;5.78;4.03;;;14.90;99.90;;;;;;4936596;29;20047;-62
2022/11/13 12:53:53;;;;;;;5.30;4.05;;;14.70;99.90;;;;;;4968742;28;20131;-62
2022/11/13 12:56:26;;;;;;;5.60;4.00;;;14.60;99.90;;;;;;4966392;28;20118;-61
2022/11/13 12:59:02;;;;;;;5.25;3.92;;;14.50;99.90;;;;;;4936686;29;20047;-62
2022/11/13 13:01:34;;;;;;;3.50;3.20;;;14.50;99.90;;;;;;4936286;28;20119;-61
2022/11/13 13:04:03;;;;;;;4.00;3.25;;;14.60;99.90;;;;;;4979889;28;20043;-61
2022/11/13 13:07:16;;;;;;;4.75;3.45;;;14.60;99.90;;;;;;4974509;28;20042;-61
2022/11/13 13:09:47;;;;;;;6.65;3.55;;;14.60;99.90;;;;;;4991840;28;20069;-61